sensor_id;sensor_type;location;lat;lon;timestamp;P1;durP1;ratioP1;P2;durP2;ratioP2
43487;SDS011;29078;41.932;25.554;2023-03-01T00:01:23;17.60;;;10.38;;
43487;SDS011;29078;41.932;25.554;2023-03-01T00:03:50;16.92;;;10.10;;
43487;SDS011;29078;41.932;25.554;2023-03-01T00:06:16;23.10;;;13.52;;
43487;SDS011;29078;41.932;25.554;2023-03-01T00:08:41;28.83;;;15.23;;
43487;SDS011;29078;41.932;25.554;2023-03-01T00:11:08;28.23;;;15.00;;
43487;SDS011;29078;41.932;25.554;2023-03-01T00:13:39;28.48;;;15.45;;
43487;SDS011;29078;41.932;25.554;2023-03-01T00:16:07;33.08;;;18.70;;
43487;SDS011;29078;41.932;25.554;2023-03-01T00:18:35;31.65;;;17.20;;
43487;SDS011;29078;41.932;25.554;2023-03-01T00:21:00;29.98;;;16.30;;
43487;SDS011;29078;41.932;25.554;2023-03-01T00:23:26;28.60;;;16.80;;
43487;SDS011;29078;41.932;25.554;2023-03-01T00:25:52;28.05;;;16.33;;
43487;SDS011;29078;41.932;25.554;2023-03-01T00:28:17;26.15;;;14.80;;
43487;SDS011;29078;41.932;25.554;2023-03-01T00:30:44;22.20;;;13.73;;
43487;SDS011;29078;41.932;25.554;2023-03-01T00:33:10;22.77;;;13.27;;
43487;SDS011;29078;41.932;25.554;2023-03-01T00:35:36;24.55;;;13.63;;
43487;SDS011;29078;41.932;25.554;2023-03-01T00:38:02;26.38;;;13.52;;
43487;SDS011;29078;41.932;25.554;2023-03-01T00:40:29;26.27;;;14.13;;
43487;SDS011;29078;41.932;25.554;2023-03-01T00:42:56;34.95;;;19.38;;
43487;SDS011;29078;41.932;25.554;2023-03-01T00:45:22;36.90;;;18.02;;
43487;SDS011;29078;41.932;25.554;2023-03-01T00:47:48;46.80;;;22.25;;
43487;SDS011;29078;41.932;25.554;2023-03-01T00:50:14;47.47;;;21.02;;
43487;SDS011;29078;41.932;25.554;2023-03-01T00:52:39;47.88;;;24.35;;
43487;SDS011;29078;41.932;25.554;2023-03-01T00:55:05;47.78;;;24.23;;
43487;SDS011;29078;41.932;25.554;2023-03-01T00:57:31;62.88;;;30.83;;
43487;SDS011;29078;41.932;25.554;2023-03-01T00:59:57;62.22;;;30.42;;
43487;SDS011;29078;41.932;25.554;2023-03-01T01:02:22;67.50;;;33.80;;
43487;SDS011;29078;41.932;25.554;2023-03-01T01:04:48;65.53;;;36.00;;
43487;SDS011;29078;41.932;25.554;2023-03-01T01:07:14;82.80;;;37.42;;
43487;SDS011;29078;41.932;25.554;2023-03-01T01:09:40;79.00;;;38.20;;
43487;SDS011;29078;41.932;25.554;2023-03-01T01:12:06;72.53;;;36.03;;
43487;SDS011;29078;41.932;25.554;2023-03-01T01:14:31;81.80;;;39.22;;
43487;SDS011;29078;41.932;25.554;2023-03-01T01:16:57;78.03;;;39.90;;
43487;SDS011;29078;41.932;25.554;2023-03-01T01:19:23;85.70;;;41.58;;
43487;SDS011;29078;41.932;25.554;2023-03-01T01:21:48;55.33;;;33.55;;
43487;SDS011;29078;41.932;25.554;2023-03-01T01:24:14;49.78;;;28.98;;
43487;SDS011;29078;41.932;25.554;2023-03-01T01:26:41;43.25;;;28.73;;
43487;SDS011;29078;41.932;25.554;2023-03-01T01:29:07;37.42;;;26.48;;
43487;SDS011;29078;41.932;25.554;2023-03-01T01:31:33;28.30;;;21.92;;
43487;SDS011;29078;41.932;25.554;2023-03-01T01:34:00;34.28;;;25.67;;
43487;SDS011;29078;41.932;25.554;2023-03-01T01:36:27;30.92;;;22.27;;
43487;SDS011;29078;41.932;25.554;2023-03-01T01:38:53;31.27;;;23.98;;
43487;SDS011;29078;41.932;25.554;2023-03-01T01:41:18;37.33;;;26.55;;
43487;SDS011;29078;41.932;25.554;2023-03-01T01:43:45;32.60;;;24.38;;
43487;SDS011;29078;41.932;25.554;2023-03-01T01:46:21;37.78;;;27.50;;
43487;SDS011;29078;41.932;25.554;2023-03-01T01:49:03;33.13;;;24.55;;
43487;SDS011;29078;41.932;25.554;2023-03-01T01:51:36;30.02;;;22.75;;
43487;SDS011;29078;41.932;25.554;2023-03-01T01:54:12;29.58;;;22.63;;
43487;SDS011;29078;41.932;25.554;2023-03-01T01:56:42;29.15;;;22.98;;
43487;SDS011;29078;41.932;25.554;2023-03-01T01:59:13;25.25;;;20.42;;
43487;SDS011;29078;41.932;25.554;2023-03-01T02:01:39;23.30;;;18.38;;
43487;SDS011;29078;41.932;25.554;2023-03-01T02:04:04;16.40;;;14.63;;
43487;SDS011;29078;41.932;25.554;2023-03-01T02:06:33;18.80;;;16.83;;
43487;SDS011;29078;41.932;25.554;2023-03-01T02:09:04;18.33;;;16.17;;
43487;SDS011;29078;41.932;25.554;2023-03-01T02:11:34;21.02;;;17.02;;
43487;SDS011;29078;41.932;25.554;2023-03-01T02:14:02;19.00;;;15.48;;
43487;SDS011;29078;41.932;25.554;2023-03-01T02:16:29;16.92;;;15.13;;
43487;SDS011;29078;41.932;25.554;2023-03-01T02:18:56;18.90;;;15.30;;
43487;SDS011;29078;41.932;25.554;2023-03-01T02:23:55;18.58;;;15.13;;
43487;SDS011;29078;41.932;25.554;2023-03-01T02:26:54;16.52;;;14.38;;
43487;SDS011;29078;41.932;25.554;2023-03-01T02:29:17;16.25;;;14.18;;
43487;SDS011;29078;41.932;25.554;2023-03-01T02:31:43;16.38;;;14.30;;
43487;SDS011;29078;41.932;25.554;2023-03-01T02:34:12;16.58;;;14.38;;
43487;SDS011;29078;41.932;25.554;2023-03-01T02:36:43;16.77;;;13.93;;
43487;SDS011;29078;41.932;25.554;2023-03-01T02:39:10;20.67;;;16.17;;
43487;SDS011;29078;41.932;25.554;2023-03-01T02:41:44;22.25;;;17.55;;
43487;SDS011;29078;41.932;25.554;2023-03-01T02:44:13;24.15;;;19.10;;
43487;SDS011;29078;41.932;25.554;2023-03-01T02:46:57;28.88;;;22.13;;
43487;SDS011;29078;41.932;25.554;2023-03-01T02:49:28;28.25;;;22.13;;
43487;SDS011;29078;41.932;25.554;2023-03-01T02:57:31;47.42;;;30.58;;
43487;SDS011;29078;41.932;25.554;2023-03-01T02:59:59;52.15;;;32.45;;
43487;SDS011;29078;41.932;25.554;2023-03-01T03:02:32;56.83;;;32.83;;
43487;SDS011;29078;41.932;25.554;2023-03-01T03:05:14;66.43;;;37.70;;
43487;SDS011;29078;41.932;25.554;2023-03-01T03:07:42;75.80;;;38.83;;
43487;SDS011;29078;41.932;25.554;2023-03-01T03:10:12;81.18;;;38.90;;
43487;SDS011;29078;41.932;25.554;2023-03-01T03:12:40;82.53;;;40.55;;
43487;SDS011;29078;41.932;25.554;2023-03-01T03:15:06;69.80;;;34.75;;
43487;SDS011;29078;41.932;25.554;2023-03-01T03:17:34;70.35;;;35.08;;
43487;SDS011;29078;41.932;25.554;2023-03-01T03:20:02;81.10;;;35.25;;
43487;SDS011;29078;41.932;25.554;2023-03-01T03:22:28;91.28;;;39.33;;
43487;SDS011;29078;41.932;25.554;2023-03-01T03:24:54;97.82;;;41.35;;
43487;SDS011;29078;41.932;25.554;2023-03-01T03:27:19;88.50;;;41.03;;
43487;SDS011;29078;41.932;25.554;2023-03-01T03:29:45;73.28;;;38.05;;
43487;SDS011;29078;41.932;25.554;2023-03-01T03:32:10;56.22;;;31.15;;
43487;SDS011;29078;41.932;25.554;2023-03-01T03:34:35;45.38;;;27.33;;
43487;SDS011;29078;41.932;25.554;2023-03-01T03:37:01;35.35;;;24.08;;
43487;SDS011;29078;41.932;25.554;2023-03-01T03:39:26;41.17;;;24.17;;
43487;SDS011;29078;41.932;25.554;2023-03-01T03:41:53;29.30;;;21.63;;
43487;SDS011;29078;41.932;25.554;2023-03-01T03:44:18;30.48;;;22.67;;
43487;SDS011;29078;41.932;25.554;2023-03-01T03:46:44;33.90;;;24.25;;
43487;SDS011;29078;41.932;25.554;2023-03-01T03:49:09;36.78;;;25.42;;
43487;SDS011;29078;41.932;25.554;2023-03-01T03:51:35;31.30;;;21.92;;
43487;SDS011;29078;41.932;25.554;2023-03-01T03:54:00;34.75;;;22.35;;
43487;SDS011;29078;41.932;25.554;2023-03-01T03:56:26;28.27;;;20.98;;
43487;SDS011;29078;41.932;25.554;2023-03-01T03:59:10;24.30;;;18.90;;
43487;SDS011;29078;41.932;25.554;2023-03-01T04:01:54;27.60;;;20.15;;
43487;SDS011;29078;41.932;25.554;2023-03-01T04:04:37;34.40;;;24.25;;
43487;SDS011;29078;41.932;25.554;2023-03-01T04:07:03;42.40;;;28.17;;
43487;SDS011;29078;41.932;25.554;2023-03-01T04:09:28;51.72;;;29.65;;
43487;SDS011;29078;41.932;25.554;2023-03-01T04:11:55;56.60;;;34.35;;
43487;SDS011;29078;41.932;25.554;2023-03-01T04:14:20;65.28;;;36.08;;
43487;SDS011;29078;41.932;25.554;2023-03-01T04:16:46;59.05;;;33.60;;
43487;SDS011;29078;41.932;25.554;2023-03-01T04:19:11;54.85;;;33.47;;
43487;SDS011;29078;41.932;25.554;2023-03-01T04:21:36;58.17;;;35.28;;
43487;SDS011;29078;41.932;25.554;2023-03-01T04:24:02;65.63;;;39.45;;
43487;SDS011;29078;41.932;25.554;2023-03-01T04:26:28;68.28;;;38.63;;
43487;SDS011;29078;41.932;25.554;2023-03-01T04:28:54;65.78;;;38.05;;
43487;SDS011;29078;41.932;25.554;2023-03-01T04:31:20;86.38;;;46.10;;
43487;SDS011;29078;41.932;25.554;2023-03-01T04:33:50;79.53;;;44.75;;
43487;SDS011;29078;41.932;25.554;2023-03-01T04:36:18;76.55;;;42.10;;
43487;SDS011;29078;41.932;25.554;2023-03-01T04:38:45;75.15;;;43.25;;
43487;SDS011;29078;41.932;25.554;2023-03-01T04:41:12;73.85;;;39.53;;
43487;SDS011;29078;41.932;25.554;2023-03-01T04:43:38;80.32;;;44.58;;
43487;SDS011;29078;41.932;25.554;2023-03-01T04:46:05;85.95;;;46.83;;
43487;SDS011;29078;41.932;25.554;2023-03-01T04:48:34;76.63;;;43.17;;
43487;SDS011;29078;41.932;25.554;2023-03-01T04:51:00;83.63;;;46.10;;
43487;SDS011;29078;41.932;25.554;2023-03-01T04:53:27;84.45;;;45.75;;
43487;SDS011;29078;41.932;25.554;2023-03-01T04:55:54;87.50;;;45.85;;
43487;SDS011;29078;41.932;25.554;2023-03-01T04:58:21;85.75;;;47.20;;
43487;SDS011;29078;41.932;25.554;2023-03-01T05:00:50;82.22;;;44.00;;
43487;SDS011;29078;41.932;25.554;2023-03-01T05:03:15;88.25;;;46.17;;
43487;SDS011;29078;41.932;25.554;2023-03-01T05:05:43;84.93;;;45.53;;
43487;SDS011;29078;41.932;25.554;2023-03-01T05:08:09;100.65;;;50.15;;
43487;SDS011;29078;41.932;25.554;2023-03-01T05:10:42;101.20;;;49.72;;
43487;SDS011;29078;41.932;25.554;2023-03-01T05:13:12;109.05;;;50.65;;
43487;SDS011;29078;41.932;25.554;2023-03-01T05:15:46;110.78;;;50.15;;
43487;SDS011;29078;41.932;25.554;2023-03-01T05:18:13;112.53;;;49.80;;
43487;SDS011;29078;41.932;25.554;2023-03-01T05:20:38;97.05;;;46.28;;
43487;SDS011;29078;41.932;25.554;2023-03-01T05:23:04;80.30;;;39.75;;
43487;SDS011;29078;41.932;25.554;2023-03-01T05:25:30;66.80;;;37.75;;
43487;SDS011;29078;41.932;25.554;2023-03-01T05:27:58;66.38;;;36.67;;
43487;SDS011;29078;41.932;25.554;2023-03-01T05:30:29;69.85;;;36.78;;
43487;SDS011;29078;41.932;25.554;2023-03-01T05:33:00;73.30;;;37.88;;
43487;SDS011;29078;41.932;25.554;2023-03-01T05:35:26;65.97;;;37.75;;
43487;SDS011;29078;41.932;25.554;2023-03-01T05:37:52;74.18;;;40.28;;
43487;SDS011;29078;41.932;25.554;2023-03-01T05:40:19;72.63;;;38.35;;
43487;SDS011;29078;41.932;25.554;2023-03-01T05:42:50;71.32;;;38.67;;
43487;SDS011;29078;41.932;25.554;2023-03-01T05:45:19;71.18;;;38.70;;
43487;SDS011;29078;41.932;25.554;2023-03-01T05:47:46;70.93;;;38.55;;
43487;SDS011;29078;41.932;25.554;2023-03-01T05:50:22;63.75;;;36.15;;
43487;SDS011;29078;41.932;25.554;2023-03-01T05:53:02;57.88;;;35.22;;
43487;SDS011;29078;41.932;25.554;2023-03-01T05:55:31;67.65;;;39.30;;
43487;SDS011;29078;41.932;25.554;2023-03-01T05:58:00;61.33;;;36.67;;
43487;SDS011;29078;41.932;25.554;2023-03-01T06:00:27;61.10;;;36.03;;
43487;SDS011;29078;41.932;25.554;2023-03-01T06:02:54;65.47;;;37.65;;
43487;SDS011;29078;41.932;25.554;2023-03-01T06:05:20;61.22;;;39.05;;
43487;SDS011;29078;41.932;25.554;2023-03-01T06:07:47;40.30;;;29.02;;
43487;SDS011;29078;41.932;25.554;2023-03-01T06:10:13;32.95;;;24.95;;
43487;SDS011;29078;41.932;25.554;2023-03-01T06:12:40;30.52;;;23.42;;
43487;SDS011;29078;41.932;25.554;2023-03-01T06:15:07;33.35;;;27.35;;
43487;SDS011;29078;41.932;25.554;2023-03-01T06:17:35;34.42;;;24.40;;
43487;SDS011;29078;41.932;25.554;2023-03-01T06:20:06;31.73;;;23.98;;
43487;SDS011;29078;41.932;25.554;2023-03-01T06:22:34;24.15;;;20.25;;
43487;SDS011;29078;41.932;25.554;2023-03-01T06:24:59;21.02;;;18.50;;
43487;SDS011;29078;41.932;25.554;2023-03-01T06:27:25;23.30;;;19.70;;
43487;SDS011;29078;41.932;25.554;2023-03-01T06:29:50;30.55;;;24.17;;
43487;SDS011;29078;41.932;25.554;2023-03-01T06:32:17;34.13;;;26.35;;
43487;SDS011;29078;41.932;25.554;2023-03-01T06:34:42;35.42;;;26.83;;
43487;SDS011;29078;41.932;25.554;2023-03-01T06:37:07;39.90;;;29.23;;
43487;SDS011;29078;41.932;25.554;2023-03-01T06:39:33;48.33;;;34.53;;
43487;SDS011;29078;41.932;25.554;2023-03-01T06:41:59;50.90;;;34.70;;
43487;SDS011;29078;41.932;25.554;2023-03-01T06:44:25;55.38;;;37.53;;
43487;SDS011;29078;41.932;25.554;2023-03-01T06:46:50;51.83;;;34.05;;
43487;SDS011;29078;41.932;25.554;2023-03-01T06:49:16;54.58;;;33.95;;
43487;SDS011;29078;41.932;25.554;2023-03-01T06:51:42;56.63;;;36.50;;
43487;SDS011;29078;41.932;25.554;2023-03-01T06:54:08;50.35;;;34.50;;
43487;SDS011;29078;41.932;25.554;2023-03-01T06:56:34;56.33;;;37.97;;
43487;SDS011;29078;41.932;25.554;2023-03-01T06:59:00;51.78;;;36.47;;
43487;SDS011;29078;41.932;25.554;2023-03-01T07:01:25;44.83;;;30.35;;
43487;SDS011;29078;41.932;25.554;2023-03-01T07:03:51;51.97;;;32.42;;
43487;SDS011;29078;41.932;25.554;2023-03-01T07:06:16;53.33;;;35.67;;
43487;SDS011;29078;41.932;25.554;2023-03-01T07:08:42;65.82;;;38.80;;
43487;SDS011;29078;41.932;25.554;2023-03-01T07:11:08;64.82;;;38.90;;
43487;SDS011;29078;41.932;25.554;2023-03-01T07:13:34;65.97;;;39.22;;
43487;SDS011;29078;41.932;25.554;2023-03-01T07:15:59;72.18;;;39.08;;
43487;SDS011;29078;41.932;25.554;2023-03-01T07:18:25;69.50;;;39.70;;
43487;SDS011;29078;41.932;25.554;2023-03-01T07:20:50;84.00;;;43.83;;
43487;SDS011;29078;41.932;25.554;2023-03-01T07:23:15;74.97;;;39.60;;
43487;SDS011;29078;41.932;25.554;2023-03-01T07:25:41;70.30;;;38.80;;
43487;SDS011;29078;41.932;25.554;2023-03-01T07:28:06;74.53;;;43.05;;
43487;SDS011;29078;41.932;25.554;2023-03-01T07:30:32;69.80;;;40.42;;
43487;SDS011;29078;41.932;25.554;2023-03-01T07:32:57;69.97;;;40.10;;
43487;SDS011;29078;41.932;25.554;2023-03-01T07:35:23;66.53;;;39.85;;
43487;SDS011;29078;41.932;25.554;2023-03-01T07:37:50;66.30;;;39.70;;
43487;SDS011;29078;41.932;25.554;2023-03-01T07:40:16;63.72;;;37.42;;
43487;SDS011;29078;41.932;25.554;2023-03-01T07:42:42;65.32;;;37.42;;
43487;SDS011;29078;41.932;25.554;2023-03-01T07:45:08;67.47;;;40.17;;
43487;SDS011;29078;41.932;25.554;2023-03-01T07:47:34;68.88;;;40.17;;
43487;SDS011;29078;41.932;25.554;2023-03-01T07:50:00;66.35;;;38.95;;
43487;SDS011;29078;41.932;25.554;2023-03-01T07:52:26;60.38;;;37.03;;
43487;SDS011;29078;41.932;25.554;2023-03-01T07:54:51;56.25;;;34.53;;
43487;SDS011;29078;41.932;25.554;2023-03-01T07:57:17;59.33;;;34.50;;
43487;SDS011;29078;41.932;25.554;2023-03-01T07:59:42;57.05;;;37.35;;
43487;SDS011;29078;41.932;25.554;2023-03-01T08:02:08;61.65;;;35.85;;
43487;SDS011;29078;41.932;25.554;2023-03-01T08:04:35;55.95;;;32.65;;
43487;SDS011;29078;41.932;25.554;2023-03-01T08:07:00;59.20;;;34.90;;
43487;SDS011;29078;41.932;25.554;2023-03-01T08:09:30;68.88;;;39.72;;
43487;SDS011;29078;41.932;25.554;2023-03-01T08:11:56;69.20;;;40.63;;
43487;SDS011;29078;41.932;25.554;2023-03-01T08:14:24;63.80;;;36.38;;
43487;SDS011;29078;41.932;25.554;2023-03-01T08:16:50;70.15;;;39.38;;
43487;SDS011;29078;41.932;25.554;2023-03-01T08:19:15;74.43;;;41.80;;
43487;SDS011;29078;41.932;25.554;2023-03-01T08:21:41;81.72;;;43.25;;
43487;SDS011;29078;41.932;25.554;2023-03-01T08:24:07;88.00;;;42.03;;
43487;SDS011;29078;41.932;25.554;2023-03-01T08:26:33;106.68;;;51.65;;
43487;SDS011;29078;41.932;25.554;2023-03-01T08:28:59;110.80;;;49.80;;
43487;SDS011;29078;41.932;25.554;2023-03-01T08:31:26;87.43;;;44.20;;
43487;SDS011;29078;41.932;25.554;2023-03-01T08:33:58;90.45;;;46.70;;
43487;SDS011;29078;41.932;25.554;2023-03-01T08:36:32;92.15;;;42.35;;
43487;SDS011;29078;41.932;25.554;2023-03-01T08:39:02;86.78;;;40.97;;
43487;SDS011;29078;41.932;25.554;2023-03-01T08:41:28;69.88;;;38.80;;
43487;SDS011;29078;41.932;25.554;2023-03-01T08:43:53;76.70;;;42.33;;
43487;SDS011;29078;41.932;25.554;2023-03-01T08:46:24;79.15;;;42.78;;
43487;SDS011;29078;41.932;25.554;2023-03-01T08:48:58;81.85;;;43.60;;
43487;SDS011;29078;41.932;25.554;2023-03-01T08:51:25;89.03;;;46.03;;
43487;SDS011;29078;41.932;25.554;2023-03-01T08:53:51;83.97;;;44.65;;
43487;SDS011;29078;41.932;25.554;2023-03-01T08:56:17;67.07;;;37.03;;
43487;SDS011;29078;41.932;25.554;2023-03-01T08:58:47;67.82;;;37.83;;
43487;SDS011;29078;41.932;25.554;2023-03-01T09:01:17;48.97;;;31.35;;
43487;SDS011;29078;41.932;25.554;2023-03-01T09:03:44;50.33;;;31.85;;
43487;SDS011;29078;41.932;25.554;2023-03-01T09:06:10;52.10;;;32.17;;
43487;SDS011;29078;41.932;25.554;2023-03-01T09:08:39;68.22;;;38.25;;
43487;SDS011;29078;41.932;25.554;2023-03-01T09:11:09;79.68;;;42.80;;
43487;SDS011;29078;41.932;25.554;2023-03-01T09:13:36;106.63;;;49.80;;
43487;SDS011;29078;41.932;25.554;2023-03-01T09:16:02;113.82;;;55.78;;
43487;SDS011;29078;41.932;25.554;2023-03-01T09:18:29;107.70;;;51.92;;
43487;SDS011;29078;41.932;25.554;2023-03-01T09:21:02;78.57;;;41.97;;
43487;SDS011;29078;41.932;25.554;2023-03-01T09:23:32;57.72;;;34.85;;
43487;SDS011;29078;41.932;25.554;2023-03-01T09:26:02;50.00;;;32.90;;
43487;SDS011;29078;41.932;25.554;2023-03-01T09:28:28;38.25;;;27.02;;
43487;SDS011;29078;41.932;25.554;2023-03-01T09:30:53;28.70;;;20.63;;
43487;SDS011;29078;41.932;25.554;2023-03-01T09:33:23;21.88;;;17.83;;
43487;SDS011;29078;41.932;25.554;2023-03-01T09:35:48;25.52;;;20.05;;
43487;SDS011;29078;41.932;25.554;2023-03-01T09:38:14;21.20;;;18.13;;
43487;SDS011;29078;41.932;25.554;2023-03-01T09:40:43;15.70;;;14.02;;
43487;SDS011;29078;41.932;25.554;2023-03-01T09:43:15;16.33;;;14.52;;
43487;SDS011;29078;41.932;25.554;2023-03-01T09:45:44;20.25;;;16.67;;
43487;SDS011;29078;41.932;25.554;2023-03-01T09:48:13;22.15;;;17.95;;
43487;SDS011;29078;41.932;25.554;2023-03-01T09:50:43;22.30;;;17.02;;
43487;SDS011;29078;41.932;25.554;2023-03-01T09:53:18;18.05;;;16.10;;
43487;SDS011;29078;41.932;25.554;2023-03-01T09:55:54;18.58;;;16.40;;
43487;SDS011;29078;41.932;25.554;2023-03-01T09:58:28;19.50;;;17.15;;
43487;SDS011;29078;41.932;25.554;2023-03-01T10:01:11;16.90;;;14.80;;
43487;SDS011;29078;41.932;25.554;2023-03-01T10:03:58;14.55;;;12.90;;
43487;SDS011;29078;41.932;25.554;2023-03-01T10:06:29;19.38;;;15.45;;
43487;SDS011;29078;41.932;25.554;2023-03-01T10:08:59;17.70;;;15.55;;
43487;SDS011;29078;41.932;25.554;2023-03-01T10:11:30;15.57;;;12.93;;
43487;SDS011;29078;41.932;25.554;2023-03-01T10:19:17;21.73;;;17.35;;
43487;SDS011;29078;41.932;25.554;2023-03-01T10:21:52;22.17;;;17.88;;
43487;SDS011;29078;41.932;25.554;2023-03-01T10:24:18;22.30;;;19.45;;
43487;SDS011;29078;41.932;25.554;2023-03-01T10:29:24;19.98;;;17.83;;
43487;SDS011;29078;41.932;25.554;2023-03-01T10:31:56;20.48;;;17.20;;
43487;SDS011;29078;41.932;25.554;2023-03-01T10:34:27;20.35;;;17.35;;
43487;SDS011;29078;41.932;25.554;2023-03-01T10:37:01;19.77;;;16.35;;
43487;SDS011;29078;41.932;25.554;2023-03-01T10:39:34;21.60;;;17.48;;
43487;SDS011;29078;41.932;25.554;2023-03-01T10:42:04;23.10;;;20.15;;
43487;SDS011;29078;41.932;25.554;2023-03-01T10:44:44;21.80;;;18.70;;
43487;SDS011;29078;41.932;25.554;2023-03-01T10:47:17;19.95;;;17.50;;
43487;SDS011;29078;41.932;25.554;2023-03-01T10:49:54;20.25;;;17.80;;
43487;SDS011;29078;41.932;25.554;2023-03-01T10:52:36;15.77;;;13.98;;
43487;SDS011;29078;41.932;25.554;2023-03-01T10:58:05;16.98;;;14.88;;
43487;SDS011;29078;41.932;25.554;2023-03-01T11:00:33;18.65;;;15.13;;
43487;SDS011;29078;41.932;25.554;2023-03-01T11:03:13;17.65;;;15.25;;
43487;SDS011;29078;41.932;25.554;2023-03-01T11:05:52;20.48;;;18.25;;
43487;SDS011;29078;41.932;25.554;2023-03-01T11:11:21;37.72;;;29.63;;
43487;SDS011;29078;41.932;25.554;2023-03-01T11:14:02;41.80;;;30.70;;
43487;SDS011;29078;41.932;25.554;2023-03-01T11:21:35;32.03;;;25.08;;
43487;SDS011;29078;41.932;25.554;2023-03-01T11:24:04;31.02;;;24.02;;
43487;SDS011;29078;41.932;25.554;2023-03-01T11:26:36;26.00;;;20.95;;
43487;SDS011;29078;41.932;25.554;2023-03-01T11:29:07;26.13;;;22.05;;
43487;SDS011;29078;41.932;25.554;2023-03-01T11:31:43;17.67;;;15.32;;
43487;SDS011;29078;41.932;25.554;2023-03-01T11:34:11;20.02;;;16.30;;
43487;SDS011;29078;41.932;25.554;2023-03-01T11:42:20;16.80;;;14.32;;
43487;SDS011;29078;41.932;25.554;2023-03-01T11:45:10;17.73;;;14.95;;
43487;SDS011;29078;41.932;25.554;2023-03-01T11:47:47;27.73;;;18.67;;
43487;SDS011;29078;41.932;25.554;2023-03-01T11:50:19;19.52;;;16.73;;
43487;SDS011;29078;41.932;25.554;2023-03-01T11:52:53;20.77;;;18.15;;
43487;SDS011;29078;41.932;25.554;2023-03-01T12:12:13;29.83;;;22.75;;
43487;SDS011;29078;41.932;25.554;2023-03-01T12:29:02;16.27;;;14.38;;
43487;SDS011;29078;41.932;25.554;2023-03-01T12:39:51;23.15;;;18.27;;
43487;SDS011;29078;41.932;25.554;2023-03-01T12:47:42;26.38;;;23.35;;
43487;SDS011;29078;41.932;25.554;2023-03-01T12:50:21;24.98;;;20.15;;
43487;SDS011;29078;41.932;25.554;2023-03-01T12:52:52;25.23;;;19.65;;
43487;SDS011;29078;41.932;25.554;2023-03-01T13:00:31;24.65;;;19.00;;
43487;SDS011;29078;41.932;25.554;2023-03-01T13:08:22;23.25;;;17.80;;
43487;SDS011;29078;41.932;25.554;2023-03-01T13:10:54;21.58;;;17.35;;
43487;SDS011;29078;41.932;25.554;2023-03-01T13:13:27;20.58;;;17.17;;
43487;SDS011;29078;41.932;25.554;2023-03-01T13:15:54;19.05;;;15.82;;
43487;SDS011;29078;41.932;25.554;2023-03-01T13:20:50;19.40;;;16.23;;
43487;SDS011;29078;41.932;25.554;2023-03-01T13:31:04;18.08;;;14.68;;
43487;SDS011;29078;41.932;25.554;2023-03-01T13:35:59;18.70;;;15.55;;
43487;SDS011;29078;41.932;25.554;2023-03-01T13:39:00;21.92;;;16.73;;
43487;SDS011;29078;41.932;25.554;2023-03-01T13:46:52;21.88;;;17.05;;
43487;SDS011;29078;41.932;25.554;2023-03-01T13:49:22;18.83;;;16.83;;
43487;SDS011;29078;41.932;25.554;2023-03-01T13:51:51;21.20;;;15.88;;
43487;SDS011;29078;41.932;25.554;2023-03-01T13:54:25;18.63;;;15.57;;
43487;SDS011;29078;41.932;25.554;2023-03-01T13:56:55;21.70;;;17.92;;
43487;SDS011;29078;41.932;25.554;2023-03-01T13:59:23;21.08;;;16.48;;
43487;SDS011;29078;41.932;25.554;2023-03-01T14:01:55;16.85;;;14.57;;
43487;SDS011;29078;41.932;25.554;2023-03-01T14:04:27;20.02;;;15.95;;
43487;SDS011;29078;41.932;25.554;2023-03-01T14:09:44;18.65;;;15.35;;
43487;SDS011;29078;41.932;25.554;2023-03-01T14:20:41;20.02;;;15.75;;
43487;SDS011;29078;41.932;25.554;2023-03-01T14:23:12;19.75;;;17.67;;
43487;SDS011;29078;41.932;25.554;2023-03-01T14:25:46;22.63;;;17.77;;
43487;SDS011;29078;41.932;25.554;2023-03-01T14:30:45;22.23;;;19.85;;
43487;SDS011;29078;41.932;25.554;2023-03-01T14:33:19;22.77;;;19.38;;
43487;SDS011;29078;41.932;25.554;2023-03-01T14:36:08;25.02;;;21.90;;
43487;SDS011;29078;41.932;25.554;2023-03-01T14:41:16;22.10;;;19.80;;
43487;SDS011;29078;41.932;25.554;2023-03-01T14:43:44;22.77;;;19.83;;
43487;SDS011;29078;41.932;25.554;2023-03-01T14:46:19;23.52;;;19.58;;
43487;SDS011;29078;41.932;25.554;2023-03-01T14:48:49;24.15;;;20.13;;
43487;SDS011;29078;41.932;25.554;2023-03-01T14:51:16;22.35;;;19.88;;
43487;SDS011;29078;41.932;25.554;2023-03-01T14:53:41;23.38;;;20.00;;
43487;SDS011;29078;41.932;25.554;2023-03-01T14:56:12;26.65;;;19.88;;
43487;SDS011;29078;41.932;25.554;2023-03-01T14:58:39;27.23;;;21.80;;
43487;SDS011;29078;41.932;25.554;2023-03-01T15:01:04;22.33;;;18.08;;
43487;SDS011;29078;41.932;25.554;2023-03-01T15:03:34;21.55;;;18.95;;
43487;SDS011;29078;41.932;25.554;2023-03-01T15:06:05;25.00;;;20.77;;
43487;SDS011;29078;41.932;25.554;2023-03-01T15:08:32;24.42;;;20.38;;
43487;SDS011;29078;41.932;25.554;2023-03-01T15:13:42;24.13;;;19.65;;
43487;SDS011;29078;41.932;25.554;2023-03-01T15:16:18;23.20;;;19.10;;
43487;SDS011;29078;41.932;25.554;2023-03-01T15:18:51;23.40;;;18.75;;
43487;SDS011;29078;41.932;25.554;2023-03-01T15:21:22;22.05;;;18.52;;
43487;SDS011;29078;41.932;25.554;2023-03-01T15:23:51;18.80;;;16.77;;
43487;SDS011;29078;41.932;25.554;2023-03-01T15:26:30;21.55;;;18.80;;
43487;SDS011;29078;41.932;25.554;2023-03-01T15:29:00;20.13;;;17.02;;
43487;SDS011;29078;41.932;25.554;2023-03-01T15:31:33;23.33;;;18.27;;
43487;SDS011;29078;41.932;25.554;2023-03-01T15:34:25;24.05;;;19.58;;
43487;SDS011;29078;41.932;25.554;2023-03-01T15:36:57;26.25;;;21.08;;
43487;SDS011;29078;41.932;25.554;2023-03-01T15:42:07;25.88;;;21.02;;
43487;SDS011;29078;41.932;25.554;2023-03-01T15:44:36;24.55;;;19.65;;
43487;SDS011;29078;41.932;25.554;2023-03-01T15:49:51;29.52;;;23.80;;
43487;SDS011;29078;41.932;25.554;2023-03-01T15:52:21;27.15;;;21.27;;
43487;SDS011;29078;41.932;25.554;2023-03-01T15:54:57;25.52;;;21.23;;
43487;SDS011;29078;41.932;25.554;2023-03-01T15:57:28;27.58;;;21.23;;
43487;SDS011;29078;41.932;25.554;2023-03-01T15:59:54;29.73;;;25.30;;
43487;SDS011;29078;41.932;25.554;2023-03-01T16:02:20;29.33;;;23.38;;
43487;SDS011;29078;41.932;25.554;2023-03-01T16:04:47;25.48;;;21.77;;
43487;SDS011;29078;41.932;25.554;2023-03-01T16:07:16;26.90;;;22.50;;
43487;SDS011;29078;41.932;25.554;2023-03-01T16:09:42;24.63;;;20.10;;
43487;SDS011;29078;41.932;25.554;2023-03-01T16:12:17;24.58;;;21.88;;
43487;SDS011;29078;41.932;25.554;2023-03-01T16:14:45;26.13;;;22.52;;
43487;SDS011;29078;41.932;25.554;2023-03-01T16:17:10;25.02;;;20.70;;
43487;SDS011;29078;41.932;25.554;2023-03-01T16:19:36;25.65;;;20.52;;
43487;SDS011;29078;41.932;25.554;2023-03-01T16:22:03;29.05;;;22.65;;
43487;SDS011;29078;41.932;25.554;2023-03-01T16:24:29;26.90;;;22.83;;
43487;SDS011;29078;41.932;25.554;2023-03-01T16:26:55;32.63;;;24.30;;
43487;SDS011;29078;41.932;25.554;2023-03-01T16:29:20;28.10;;;20.85;;